Time;durP1;ratioP1;P1;durP2;ratioP2;P2;SDS_P1;SDS_P2;PMS_P1;PMS_P2;Temp;Humidity;BMP_temperature;BMP_pressure;BME280_temperature;BME280_humidity;BME280_pressure;Samples;Min_cycle;Max_cycle;Signal;HPM_P1;HPM_P2
2023/07/07 00:01:54;;;;;;;11.27;8.87;;;;;;;;;;5135442;27;20432;-62
2023/07/07 00:04:21;;;;;;;10.87;7.70;;;;;;;;;;5134963;27;20494;-62
2023/07/07 00:06:49;;;;;;;9.77;8.80;;;;;;;;;;5134769;27;20954;-62
2023/07/07 00:09:16;;;;;;;10.47;9.43;;;;;;;;;;5134787;27;20522;-63
2023/07/07 00:11:45;;;;;;;12.93;7.70;;;;;;;;;;5134984;27;20445;-63
2023/07/07 00:14:12;;;;;;;10.77;8.23;;;;;;;;;;5134866;27;20450;-63
2023/07/07 00:16:40;;;;;;;11.33;8.20;;;;;;;;;;5135106;27;20445;-63
2023/07/07 00:19:10;;;;;;;11.47;8.37;;;;;;;;;;5134644;27;20456;-63
2023/07/07 00:21:37;;;;;;;9.43;8.57;;;;;;;;;;5134561;27;20435;-63
2023/07/07 00:24:05;;;;;;;9.57;8.70;;;;;;;;;;5134747;27;20477;-61
2023/07/07 00:26:32;;;;;;;9.03;8.13;;;;;;;;;;5134725;27;20453;-62
2023/07/07 00:29:01;;;;;;;9.30;8.50;;;;;;;;;;5134630;27;20435;-63
2023/07/07 00:31:28;;;;;;;9.33;8.10;;;;;;;;;;5134286;27;20917;-62
2023/07/07 00:33:56;;;;;;;12.07;8.90;;;;;;;;;;5134352;27;20450;-63
2023/07/07 00:36:23;;;;;;;11.70;9.30;;;;;;;;;;5134175;27;20928;-63
2023/07/07 00:38:51;;;;;;;13.23;8.80;;;;;;;;;;5134610;27;20448;-63
2023/07/07 00:41:19;;;;;;;10.20;8.60;;;;;;;;;;5134510;27;20484;-62
2023/07/07 00:44:01;;;;;;;10.30;9.30;;;;;;;;;;5134550;27;20526;-63
2023/07/07 00:46:30;;;;;;;13.63;9.27;;;;;;;;;;5134207;27;20860;-62
2023/07/07 00:48:58;;;;;;;11.57;9.27;;;;;;;;;;5134635;27;20442;-63
2023/07/07 00:51:27;;;;;;;13.30;10.53;;;;;;;;;;5134400;27;20546;-63
2023/07/07 00:53:56;;;;;;;14.03;10.10;;;;;;;;;;5134101;27;20455;-63
2023/07/07 00:56:25;;;;;;;11.33;10.23;;;;;;;;;;5134071;27;20477;-63
2023/07/07 00:58:52;;;;;;;12.60;11.07;;;;;;;;;;5134510;27;20483;-63
2023/07/07 01:01:19;;;;;;;14.93;10.43;;;;;;;;;;5134213;28;20445;-62
2023/07/07 01:03:50;;;;;;;11.97;10.33;;;;;;;;;;5134508;28;20478;-62
2023/07/07 01:06:20;;;;;;;13.00;10.43;;;;;;;;;;5134463;28;20441;-62
2023/07/07 01:08:49;;;;;;;12.63;10.27;;;;;;;;;;5133979;28;20442;-63
2023/07/07 01:11:19;;;;;;;11.20;9.10;;;;;;;;;;5133876;28;20949;-62
2023/07/07 01:13:46;;;;;;;11.97;10.87;;;;;;;;;;5133915;27;20443;-63
2023/07/07 01:16:17;;;;;;;12.97;10.20;;;;;;;;;;5134332;28;20445;-62
2023/07/07 01:18:49;;;;;;;13.33;9.83;;;;;;;;;;5134293;28;20440;-62
2023/07/07 01:21:29;;;;;;;11.00;9.40;;;;;;;;;;5133800;27;20432;-62
2023/07/07 01:24:11;;;;;;;11.97;10.10;;;;;;;;;;5133796;27;20558;-62
2023/07/07 01:27:00;;;;;;;15.23;9.63;;;;;;;;;;5134198;28;20429;-63
2023/07/07 01:29:43;;;;;;;12.53;9.93;;;;;;;;;;5134019;27;20448;-62
2023/07/07 01:32:15;;;;;;;12.23;10.60;;;;;;;;;;5134141;27;20776;-63
2023/07/07 01:34:42;;;;;;;11.30;10.03;;;;;;;;;;5134030;28;20447;-63
2023/07/07 01:37:09;;;;;;;13.07;10.10;;;;;;;;;;5133577;28;20950;-63
2023/07/07 01:39:37;;;;;;;11.00;9.97;;;;;;;;;;5133633;28;20456;-63
2023/07/07 01:42:09;;;;;;;10.73;9.70;;;;;;;;;;5134155;27;20456;-62
2023/07/07 01:44:41;;;;;;;11.87;10.30;;;;;;;;;;5133910;27;20476;-62
2023/07/07 01:47:13;;;;;;;10.80;9.80;;;;;;;;;;5133894;28;20432;-62
2023/07/07 01:49:43;;;;;;;12.10;10.80;;;;;;;;;;5133670;27;20437;-61
2023/07/07 01:52:12;;;;;;;14.40;10.80;;;;;;;;;;5134045;28;20431;-63
2023/07/07 01:54:41;;;;;;;13.80;10.50;;;;;;;;;;5133493;28;20452;-62
2023/07/07 01:57:09;;;;;;;11.80;10.60;;;;;;;;;;5133662;28;20450;-62
2023/07/07 01:59:36;;;;;;;14.57;10.77;;;;;;;;;;5133470;28;20475;-63
2023/07/07 02:02:04;;;;;;;12.10;9.80;;;;;;;;;;5133616;28;20444;-62
2023/07/07 02:04:31;;;;;;;13.77;12.03;;;;;;;;;;5133985;27;20473;-62
2023/07/07 02:07:00;;;;;;;13.10;10.63;;;;;;;;;;5134574;27;20976;-62
2023/07/07 02:09:28;;;;;;;14.30;11.60;;;;;;;;;;5137082;27;20439;-62
2023/07/07 02:11:55;;;;;;;15.00;11.10;;;;;;;;;;5137344;27;20493;-63
2023/07/07 02:14:22;;;;;;;13.43;10.93;;;;;;;;;;5136917;27;20493;-63
2023/07/07 02:16:50;;;;;;;18.60;11.87;;;;;;;;;;5136870;27;20918;-62
2023/07/07 02:19:17;;;;;;;15.40;12.30;;;;;;;;;;5137598;27;20924;-63
2023/07/07 02:21:44;;;;;;;15.77;12.23;;;;;;;;;;5137092;27;20430;-62
2023/07/07 02:24:13;;;;;;;18.60;13.40;;;;;;;;;;5137203;27;20472;-62
2023/07/07 02:26:40;;;;;;;12.40;11.20;;;;;;;;;;5137003;27;20490;-62
2023/07/07 02:29:07;;;;;;;15.20;12.30;;;;;;;;;;5136856;27;20457;-63
2023/07/07 02:31:34;;;;;;;14.50;13.10;;;;;;;;;;5137258;27;20439;-63
2023/07/07 02:34:02;;;;;;;15.17;12.40;;;;;;;;;;5136900;27;20439;-63
2023/07/07 02:36:29;;;;;;;13.33;12.07;;;;;;;;;;5136477;27;20443;-63
2023/07/07 02:38:56;;;;;;;14.13;11.90;;;;;;;;;;5136528;27;20447;-63
2023/07/07 02:41:24;;;;;;;14.30;12.73;;;;;;;;;;5136365;27;20437;-62
2023/07/07 02:43:52;;;;;;;15.27;11.90;;;;;;;;;;5136941;27;20482;-62
2023/07/07 02:46:19;;;;;;;13.70;12.13;;;;;;;;;;5136866;27;20447;-63
2023/07/07 02:48:46;;;;;;;14.30;12.90;;;;;;;;;;5137077;27;20441;-62
2023/07/07 02:51:13;;;;;;;17.23;12.23;;;;;;;;;;5137031;27;20438;-64
2023/07/07 02:53:41;;;;;;;14.03;12.53;;;;;;;;;;5136281;27;20487;-62
2023/07/07 02:56:08;;;;;;;15.17;13.57;;;;;;;;;;5136163;27;20959;-62
2023/07/07 02:58:36;;;;;;;17.77;12.57;;;;;;;;;;5136148;27;20444;-64
2023/07/07 03:01:09;;;;;;;15.27;13.13;;;;;;;;;;5136606;27;20438;-62
2023/07/07 03:03:37;;;;;;;14.10;11.73;;;;;;;;;;5136314;27;20468;-62
2023/07/07 03:06:04;;;;;;;14.03;11.90;;;;;;;;;;5136017;27;20970;-63
2023/07/07 03:08:31;;;;;;;15.03;12.83;;;;;;;;;;5135864;27;20447;-62
2023/07/07 03:10:59;;;;;;;13.70;12.30;;;;;;;;;;5136405;27;20924;-61
2023/07/07 03:13:26;;;;;;;17.47;11.93;;;;;;;;;;5136151;27;20449;-62
2023/07/07 03:15:54;;;;;;;16.80;13.13;;;;;;;;;;5136184;27;20440;-62
2023/07/07 03:18:21;;;;;;;13.77;12.27;;;;;;;;;;5135746;27;21008;-62
2023/07/07 03:20:49;;;;;;;18.47;13.93;;;;;;;;;;5136042;27;20872;-63
2023/07/07 03:23:17;;;;;;;13.93;12.50;;;;;;;;;;5136120;27;20444;-62
2023/07/07 03:25:44;;;;;;;15.73;12.70;;;;;;;;;;5135959;27;20441;-61
2023/07/07 03:28:11;;;;;;;14.07;12.70;;;;;;;;;;5135890;27;20834;-62
2023/07/07 03:30:38;;;;;;;17.30;12.70;;;;;;;;;;5135479;27;20448;-63
2023/07/07 03:33:07;;;;;;;17.03;11.57;;;;;;;;;;5135730;27;20441;-63
2023/07/07 03:35:34;;;;;;;12.20;10.90;;;;;;;;;;5135719;27;20444;-63
2023/07/07 03:38:01;;;;;;;11.57;10.47;;;;;;;;;;5135279;27;20447;-62
2023/07/07 03:40:29;;;;;;;14.83;13.47;;;;;;;;;;5136057;27;20522;-62
2023/07/07 03:42:56;;;;;;;12.47;11.33;;;;;;;;;;5135508;27;20439;-62
2023/07/07 03:45:23;;;;;;;16.40;12.20;;;;;;;;;;5135452;27;20494;-63
2023/07/07 03:47:51;;;;;;;14.20;11.53;;;;;;;;;;5135498;27;20444;-63
2023/07/07 03:50:19;;;;;;;14.27;12.67;;;;;;;;;;5134267;27;20440;-63
2023/07/07 03:52:46;;;;;;;13.10;11.57;;;;;;;;;;5135151;27;20444;-63
2023/07/07 03:55:14;;;;;;;16.03;13.10;;;;;;;;;;5135232;27;20438;-63
2023/07/07 03:57:41;;;;;;;16.43;11.80;;;;;;;;;;5134876;27;20445;-62
2023/07/07 04:00:10;;;;;;;13.40;12.03;;;;;;;;;;5135089;27;20494;-63
2023/07/07 04:02:37;;;;;;;17.13;12.63;;;;;;;;;;5135034;27;20442;-63
2023/07/07 04:05:04;;;;;;;14.83;12.80;;;;;;;;;;5134587;27;20972;-64
2023/07/07 04:07:33;;;;;;;16.27;12.13;;;;;;;;;;5135122;27;20452;-62
2023/07/07 04:10:00;;;;;;;14.53;12.20;;;;;;;;;;5134644;27;20921;-63
2023/07/07 04:12:27;;;;;;;14.27;12.77;;;;;;;;;;5134872;27;20440;-63
2023/07/07 04:14:54;;;;;;;14.80;11.57;;;;;;;;;;5134997;27;20442;-62
2023/07/07 04:17:21;;;;;;;21.43;12.70;;;;;;;;;;5135219;27;20439;-62
2023/07/07 04:19:49;;;;;;;13.73;12.00;;;;;;;;;;5134707;27;20444;-62
2023/07/07 04:22:16;;;;;;;15.50;11.13;;;;;;;;;;5134234;27;20450;-64
2023/07/07 04:24:44;;;;;;;13.33;11.13;;;;;;;;;;5134557;27;20482;-62
2023/07/07 04:27:12;;;;;;;13.20;11.40;;;;;;;;;;5134721;27;20458;-63
2023/07/07 04:29:39;;;;;;;14.27;11.97;;;;;;;;;;5134447;27;20440;-62
2023/07/07 04:32:06;;;;;;;13.03;11.80;;;;;;;;;;5134224;27;20542;-64
2023/07/07 04:34:34;;;;;;;12.70;11.33;;;;;;;;;;5134481;27;20443;-63
2023/07/07 04:37:01;;;;;;;16.30;12.80;;;;;;;;;;5134300;27;20954;-63
2023/07/07 04:39:28;;;;;;;12.90;11.60;;;;;;;;;;5134113;27;20444;-63
2023/07/07 04:41:56;;;;;;;12.30;11.00;;;;;;;;;;5134516;27;20447;-63
2023/07/07 04:44:24;;;;;;;13.33;12.03;;;;;;;;;;5133921;27;20477;-62
2023/07/07 04:46:51;;;;;;;14.53;12.00;;;;;;;;;;5134512;27;20799;-62
2023/07/07 04:49:18;;;;;;;12.23;10.30;;;;;;;;;;5133970;27;20445;-63
2023/07/07 04:51:45;;;;;;;14.33;11.60;;;;;;;;;;5134031;27;20447;-62
2023/07/07 04:54:13;;;;;;;13.70;10.77;;;;;;;;;;5133900;27;20941;-63
2023/07/07 04:56:40;;;;;;;16.07;10.80;;;;;;;;;;5134080;27;20934;-63
2023/07/07 04:59:09;;;;;;;15.87;11.57;;;;;;;;;;5133861;27;20476;-63
2023/07/07 05:01:37;;;;;;;12.47;10.00;;;;;;;;;;5134418;27;20435;-63
2023/07/07 05:04:05;;;;;;;12.10;10.43;;;;;;;;;;5133796;28;21005;-63
2023/07/07 05:06:34;;;;;;;11.10;9.93;;;;;;;;;;5133967;28;20902;-63
2023/07/07 05:09:03;;;;;;;16.07;10.17;;;;;;;;;;5134263;28;20441;-63
2023/07/07 05:11:31;;;;;;;13.13;10.33;;;;;;;;;;5134159;28;20509;-62
2023/07/07 05:13:58;;;;;;;15.00;10.00;;;;;;;;;;5134058;28;20447;-62
2023/07/07 05:16:28;;;;;;;12.00;10.80;;;;;;;;;;5133680;28;20443;-62
2023/07/07 05:18:56;;;;;;;11.63;9.83;;;;;;;;;;5133655;28;20436;-63
2023/07/07 05:21:24;;;;;;;12.23;9.87;;;;;;;;;;5134085;28;20525;-62
2023/07/07 05:23:52;;;;;;;17.03;10.43;;;;;;;;;;5133924;28;20443;-63
2023/07/07 05:26:19;;;;;;;14.47;11.00;;;;;;;;;;5133945;28;20472;-62
2023/07/07 05:28:46;;;;;;;11.87;9.50;;;;;;;;;;5133913;28;20453;-62
2023/07/07 05:31:13;;;;;;;12.70;10.07;;;;;;;;;;5134061;28;20438;-62
2023/07/07 05:33:42;;;;;;;17.53;10.20;;;;;;;;;;5133552;28;20453;-63
2023/07/07 05:36:10;;;;;;;16.63;9.50;;;;;;;;;;5133746;28;20935;-62
2023/07/07 05:38:38;;;;;;;14.43;9.27;;;;;;;;;;5134249;28;20443;-62
2023/07/07 05:41:06;;;;;;;16.03;10.10;;;;;;;;;;5133657;27;20989;-62
2023/07/07 05:43:34;;;;;;;14.07;9.70;;;;;;;;;;5137680;27;20439;-62
2023/07/07 05:46:01;;;;;;;16.03;10.70;;;;;;;;;;5138131;27;20840;-61
2023/07/07 05:48:29;;;;;;;9.70;8.80;;;;;;;;;;5137571;27;20448;-62
2023/07/07 05:51:00;;;;;;;15.50;10.20;;;;;;;;;;5137750;27;20438;-62
2023/07/07 05:53:28;;;;;;;12.30;9.50;;;;;;;;;;5137579;27;20435;-62
2023/07/07 05:55:56;;;;;;;10.80;9.50;;;;;;;;;;5137308;27;20470;-62
2023/07/07 05:58:23;;;;;;;12.20;8.77;;;;;;;;;;5137218;27;20444;-63
2023/07/07 06:00:50;;;;;;;10.10;8.57;;;;;;;;;;5137276;27;20439;-62
2023/07/07 06:03:17;;;;;;;20.70;8.80;;;;;;;;;;5137282;27;20445;-62
2023/07/07 06:05:45;;;;;;;8.23;7.50;;;;;;;;;;5137036;27;20470;-62
2023/07/07 06:08:13;;;;;;;12.00;8.10;;;;;;;;;;5137233;27;20941;-62
2023/07/07 06:10:40;;;;;;;9.07;8.17;;;;;;;;;;5137413;27;20440;-62
2023/07/07 06:13:07;;;;;;;9.67;8.20;;;;;;;;;;5137835;27;20534;-62
2023/07/07 06:15:35;;;;;;;12.93;8.90;;;;;;;;;;5137247;27;20446;-62
2023/07/07 06:18:02;;;;;;;8.87;7.97;;;;;;;;;;5137505;27;20439;-62
2023/07/07 06:20:29;;;;;;;9.20;8.07;;;;;;;;;;5137463;27;20441;-62
2023/07/07 06:22:57;;;;;;;12.23;8.27;;;;;;;;;;5136902;27;20443;-63
2023/07/07 06:25:25;;;;;;;9.73;7.97;;;;;;;;;;5137189;27;20477;-62
2023/07/07 06:27:52;;;;;;;13.80;7.53;;;;;;;;;;5136731;27;20450;-62
2023/07/07 06:30:20;;;;;;;11.07;8.00;;;;;;;;;;5137187;27;20943;-62
2023/07/07 06:32:47;;;;;;;12.77;7.60;;;;;;;;;;5136690;27;20448;-62
2023/07/07 06:35:14;;;;;;;9.13;8.27;;;;;;;;;;5136881;27;20535;-62
2023/07/07 06:37:41;;;;;;;8.33;7.53;;;;;;;;;;5136950;27;20437;-62
2023/07/07 06:40:09;;;;;;;8.80;7.80;;;;;;;;;;5136507;27;20443;-62
2023/07/07 06:42:38;;;;;;;8.27;7.47;;;;;;;;;;5136854;27;20523;-62
2023/07/07 06:45:05;;;;;;;8.30;6.53;;;;;;;;;;5136584;27;20474;-62
2023/07/07 06:47:32;;;;;;;8.40;7.57;;;;;;;;;;5136488;27;20441;-61
2023/07/07 06:49:59;;;;;;;8.33;7.47;;;;;;;;;;5136232;27;20450;-62
2023/07/07 06:52:27;;;;;;;7.90;7.20;;;;;;;;;;5136016;27;20450;-62
2023/07/07 06:54:54;;;;;;;6.83;6.13;;;;;;;;;;5136612;27;20444;-62
2023/07/07 06:57:22;;;;;;;7.87;6.77;;;;;;;;;;5136289;27;20448;-62
2023/07/07 06:59:50;;;;;;;8.70;6.67;;;;;;;;;;5135927;27;20472;-63
2023/07/07 07:02:17;;;;;;;8.60;6.57;;;;;;;;;;5136668;27;20441;-63
2023/07/07 07:04:45;;;;;;;7.47;6.10;;;;;;;;;;5135911;27;20485;-63
2023/07/07 07:07:12;;;;;;;7.00;6.27;;;;;;;;;;5136555;27;20444;-63
2023/07/07 07:09:39;;;;;;;12.13;7.20;;;;;;;;;;5136796;27;20442;-63
2023/07/07 07:12:07;;;;;;;8.17;6.83;;;;;;;;;;5136292;27;20455;-62
2023/07/07 07:14:34;;;;;;;9.53;7.57;;;;;;;;;;5136654;27;20437;-62
2023/07/07 07:17:02;;;;;;;6.80;6.20;;;;;;;;;;5136165;27;20440;-62
2023/07/07 07:19:29;;;;;;;7.70;5.80;;;;;;;;;;5136162;27;20523;-62
2023/07/07 07:21:57;;;;;;;6.60;5.70;;;;;;;;;;5136014;27;20523;-62
2023/07/07 07:24:24;;;;;;;7.53;6.13;;;;;;;;;;5135729;27;20448;-62
2023/07/07 07:26:52;;;;;;;9.83;5.97;;;;;;;;;;5135875;27;20449;-62
2023/07/07 07:29:19;;;;;;;6.00;5.43;;;;;;;;;;5136332;27;20449;-62
2023/07/07 07:31:46;;;;;;;6.90;6.30;;;;;;;;;;5135478;27;20534;-62
2023/07/07 07:34:29;;;;;;;6.30;5.70;;;;;;;;;;5135532;27;20437;-62
2023/07/07 07:36:56;;;;;;;6.70;6.03;;;;;;;;;;5135394;27;20437;-61
2023/07/07 07:39:24;;;;;;;7.17;5.90;;;;;;;;;;5135617;27;20453;-63
2023/07/07 07:41:52;;;;;;;6.13;5.43;;;;;;;;;;5135644;27;20463;-62
2023/07/07 07:44:20;;;;;;;14.83;10.07;;;;;;;;;;5135749;27;20526;-62
2023/07/07 07:46:48;;;;;;;6.17;5.57;;;;;;;;;;5135537;27;20482;-63
2023/07/07 07:49:16;;;;;;;5.43;4.87;;;;;;;;;;5135549;27;20435;-62
2023/07/07 07:51:46;;;;;;;7.10;4.30;;;;;;;;;;5134998;27;20440;-62
2023/07/07 07:54:16;;;;;;;5.93;4.33;;;;;;;;;;5135100;27;20514;-62
2023/07/07 07:56:43;;;;;;;5.93;4.93;;;;;;;;;;5135406;27;20451;-62
2023/07/07 07:59:10;;;;;;;5.07;4.57;;;;;;;;;;5134884;27;20986;-62
2023/07/07 08:01:37;;;;;;;5.20;4.17;;;;;;;;;;5135215;27;20925;-62
2023/07/07 08:04:05;;;;;;;6.07;4.33;;;;;;;;;;5134626;27;20973;-62
2023/07/07 08:06:32;;;;;;;5.67;4.03;;;;;;;;;;5134742;27;20487;-62
2023/07/07 08:09:02;;;;;;;5.53;3.90;;;;;;;;;;5135074;27;20468;-62
2023/07/07 08:11:49;;;;;;;5.30;4.70;;;;;;;;;;5134596;27;20438;-62
2023/07/07 08:14:17;;;;;;;8.00;3.53;;;;;;;;;;5134985;27;20532;-62
2023/07/07 08:16:45;;;;;;;8.70;3.73;;;;;;;;;;5136176;27;20448;-62
2023/07/07 08:19:12;;;;;;;4.53;3.97;;;;;;;;;;5135748;27;20451;-62
2023/07/07 08:21:39;;;;;;;4.97;3.60;;;;;;;;;;5135173;27;20442;-62
2023/07/07 08:24:08;;;;;;;4.60;3.70;;;;;;;;;;5135118;27;20517;-62
2023/07/07 08:26:35;;;;;;;3.23;2.83;;;;;;;;;;5134260;27;20492;-62
2023/07/07 08:29:02;;;;;;;4.00;3.27;;;;;;;;;;5134657;27;20442;-62
2023/07/07 08:31:29;;;;;;;5.60;3.90;;;;;;;;;;5134696;27;20837;-62
2023/07/07 08:33:57;;;;;;;4.07;3.63;;;;;;;;;;5134593;27;20805;-62
2023/07/07 08:36:24;;;;;;;5.73;4.27;;;;;;;;;;5133669;27;20438;-62
2023/07/07 08:38:51;;;;;;;5.93;4.20;;;;;;;;;;5134476;27;20456;-62
2023/07/07 08:41:20;;;;;;;5.30;4.10;;;;;;;;;;5134813;27;20438;-62
2023/07/07 08:43:47;;;;;;;5.07;3.90;;;;;;;;;;5134395;27;20944;-62
2023/07/07 08:46:18;;;;;;;5.93;3.77;;;;;;;;;;5134008;27;21031;-62
2023/07/07 08:48:50;;;;;;;5.90;3.40;;;;;;;;;;5134621;27;20434;-62
2023/07/07 08:51:18;;;;;;;5.93;2.57;;;;;;;;;;5134717;27;20429;-63
2023/07/07 08:53:52;;;;;;;5.03;2.90;;;;;;;;;;5134983;27;20451;-62
2023/07/07 08:56:23;;;;;;;3.50;2.33;;;;;;;;;;5134454;27;20426;-63
2023/07/07 08:58:57;;;;;;;3.70;2.80;;;;;;;;;;5134670;27;20475;-62
2023/07/07 09:01:32;;;;;;;3.80;2.50;;;;;;;;;;5134545;27;20431;-62
2023/07/07 09:04:06;;;;;;;4.00;2.73;;;;;;;;;;5134047;27;20465;-62
2023/07/07 09:06:40;;;;;;;5.00;3.40;;;;;;;;;;5134196;28;20494;-62
2023/07/07 09:09:13;;;;;;;4.20;2.73;;;;;;;;;;5134820;28;20521;-63
2023/07/07 09:11:51;;;;;;;3.13;2.67;;;;;;;;;;5134551;28;20437;-63
2023/07/07 09:14:18;;;;;;;4.40;2.57;;;;;;;;;;5134392;28;20426;-62
2023/07/07 09:16:46;;;;;;;4.60;3.07;;;;;;;;;;5136391;27;20506;-63
2023/07/07 09:19:15;;;;;;;4.20;2.50;;;;;;;;;;5138180;27;20431;-63
2023/07/07 09:21:43;;;;;;;3.83;3.30;;;;;;;;;;5138334;27;20442;-63
2023/07/07 09:24:19;;;;;;;3.60;2.67;;;;;;;;;;5138530;27;20445;-63
2023/07/07 09:26:48;;;;;;;8.93;4.90;;;;;;;;;;5138247;27;20471;-63
2023/07/07 09:29:20;;;;;;;3.43;2.83;;;;;;;;;;5137816;27;20960;-63
2023/07/07 09:31:47;;;;;;;4.97;3.10;;;;;;;;;;5138732;27;20821;-63
2023/07/07 09:34:15;;;;;;;3.37;2.83;;;;;;;;;;5138628;27;20434;-62
2023/07/07 09:36:44;;;;;;;5.00;3.30;;;;;;;;;;5138110;27;20447;-63
2023/07/07 09:39:24;;;;;;;10.53;2.97;;;;;;;;;;5138089;27;20440;-63
2023/07/07 09:42:03;;;;;;;4.57;2.67;;;;;;;;;;5138512;27;20432;-63
2023/07/07 09:44:35;;;;;;;3.40;2.87;;;;;;;;;;5138415;27;20918;-62
2023/07/07 09:47:06;;;;;;;6.70;3.10;;;;;;;;;;5138208;27;20965;-62
2023/07/07 09:49:36;;;;;;;5.60;3.30;;;;;;;;;;5137676;27;20424;-61
2023/07/07 09:52:09;;;;;;;3.30;2.60;;;;;;;;;;5137503;27;20421;-63
2023/07/07 09:54:36;;;;;;;3.70;2.60;;;;;;;;;;5137520;27;20970;-61
2023/07/07 09:57:07;;;;;;;2.97;2.67;;;;;;;;;;5137663;27;20447;-63
2023/07/07 09:59:35;;;;;;;4.20;2.60;;;;;;;;;;5137518;27;20470;-61
2023/07/07 10:02:03;;;;;;;4.60;2.57;;;;;;;;;;5137613;27;20444;-62
2023/07/07 10:04:31;;;;;;;6.90;2.67;;;;;;;;;;5137800;27;20444;-61
2023/07/07 10:06:59;;;;;;;3.30;2.90;;;;;;;;;;5137127;27;20482;-62
2023/07/07 10:09:28;;;;;;;4.80;2.97;;;;;;;;;;5137404;27;20472;-61
2023/07/07 10:11:56;;;;;;;5.73;2.80;;;;;;;;;;5137360;27;21064;-62
2023/07/07 10:14:26;;;;;;;7.67;2.73;;;;;;;;;;5136979;27;20453;-61
2023/07/07 10:16:59;;;;;;;4.30;3.23;;;;;;;;;;5137039;27;20441;-62
2023/07/07 10:19:27;;;;;;;6.33;3.30;;;;;;;;;;5137276;27;20436;-62
2023/07/07 10:21:54;;;;;;;3.80;2.63;;;;;;;;;;5137115;27;20436;-63
2023/07/07 10:24:21;;;;;;;4.97;2.80;;;;;;;;;;5137118;27;20446;-61
2023/07/07 10:26:49;;;;;;;3.90;3.00;;;;;;;;;;5136664;27;20994;-61
2023/07/07 10:29:17;;;;;;;5.13;4.53;;;;;;;;;;5136580;27;20890;-62
2023/07/07 10:31:47;;;;;;;7.50;4.43;;;;;;;;;;5136640;27;20443;-62
2023/07/07 10:34:25;;;;;;;3.97;2.80;;;;;;;;;;5136786;27;20528;-62
2023/07/07 10:36:54;;;;;;;3.20;2.80;;;;;;;;;;5136960;27;20448;-62
2023/07/07 10:39:23;;;;;;;3.13;2.80;;;;;;;;;;5136953;27;20445;-62
2023/07/07 10:41:50;;;;;;;4.43;3.00;;;;;;;;;;5136885;27;20446;-62
2023/07/07 10:44:18;;;;;;;4.67;3.80;;;;;;;;;;5136886;27;20441;-62
2023/07/07 10:46:46;;;;;;;4.20;3.37;;;;;;;;;;5136752;27;20472;-62
2023/07/07 10:49:16;;;;;;;10.27;2.83;;;;;;;;;;5136715;27;20448;-62
2023/07/07 10:51:48;;;;;;;4.17;2.50;;;;;;;;;;5136646;27;20528;-62
2023/07/07 10:54:19;;;;;;;2.40;2.20;;;;;;;;;;5136285;27;20432;-62
2023/07/07 10:56:48;;;;;;;3.67;2.90;;;;;;;;;;5136243;27;20445;-62
2023/07/07 10:59:39;;;;;;;2.50;2.30;;;;;;;;;;5136182;27;20482;-63
2023/07/07 11:02:18;;;;;;;3.57;2.67;;;;;;;;;;5116638;27;21085;-62
2023/07/07 11:04:57;;;;;;;2.60;2.40;;;;;;;;;;5136026;27;20866;-63
2023/07/07 11:07:29;;;;;;;5.43;4.33;;;;;;;;;;5136732;27;20475;-62
2023/07/07 11:10:03;;;;;;;7.00;4.27;;;;;;;;;;5135942;27;20421;-62
2023/07/07 11:12:34;;;;;;;4.43;2.97;;;;;;;;;;5136329;27;20437;-62
2023/07/07 11:15:06;;;;;;;4.50;3.27;;;;;;;;;;5136140;27;20429;-63
2023/07/07 11:17:52;;;;;;;2.93;2.27;;;;;;;;;;5136235;27;20448;-61
2023/07/07 11:20:30;;;;;;;2.47;2.27;;;;;;;;;;5136004;27;20858;-63
2023/07/07 11:23:03;;;;;;;4.70;2.83;;;;;;;;;;5135766;27;20464;-62
2023/07/07 11:25:34;;;;;;;4.43;3.37;;;;;;;;;;5136064;27;20428;-62
2023/07/07 11:28:05;;;;;;;5.80;3.80;;;;;;;;;;5135750;27;20472;-62
2023/07/07 11:30:38;;;;;;;4.67;3.20;;;;;;;;;;5135468;27;20799;-63
2023/07/07 11:33:14;;;;;;;4.30;2.77;;;;;;;;;;5136297;27;20422;-62
2023/07/07 11:35:48;;;;;;;4.30;2.53;;;;;;;;;;5135636;27;20426;-62
2023/07/07 11:38:27;;;;;;;4.63;2.73;;;;;;;;;;5135980;27;20432;-63
2023/07/07 11:40:59;;;;;;;3.70;3.07;;;;;;;;;;5134391;27;20472;-62
2023/07/07 11:43:52;;;;;;;2.50;2.30;;;;;;;;;;5135489;27;20459;-63
2023/07/07 11:46:31;;;;;;;4.77;2.90;;;;;;;;;;5135758;27;20488;-62
2023/07/07 11:49:06;;;;;;;4.13;2.60;;;;;;;;;;5135165;27;20918;-62
2023/07/07 11:51:39;;;;;;;4.40;3.10;;;;;;;;;;5136572;27;20436;-62
2023/07/07 11:54:15;;;;;;;3.90;2.90;;;;;;;;;;5135422;27;20442;-62
2023/07/07 11:56:57;;;;;;;2.70;2.23;;;;;;;;;;5135410;27;20436;-62
2023/07/07 11:59:33;;;;;;;2.53;2.30;;;;;;;;;;5132070;27;20478;-62
2023/07/07 12:02:01;;;;;;;3.23;2.93;;;;;;;;;;5135464;27;20432;-62
2023/07/07 12:04:32;;;;;;;4.57;2.80;;;;;;;;;;5135313;27;20448;-62
2023/07/07 12:07:01;;;;;;;3.03;2.73;;;;;;;;;;5135347;27;21081;-62
2023/07/07 12:09:35;;;;;;;3.03;2.83;;;;;;;;;;5135315;27;20527;-62
2023/07/07 12:12:08;;;;;;;3.03;2.73;;;;;;;;;;5135429;27;20901;-62
2023/07/07 12:14:37;;;;;;;3.47;2.67;;;;;;;;;;5135111;27;20769;-62
2023/07/07 12:17:05;;;;;;;2.80;2.30;;;;;;;;;;5134911;27;20475;-62
2023/07/07 12:19:37;;;;;;;4.70;3.10;;;;;;;;;;5134690;27;20501;-61
2023/07/07 12:22:06;;;;;;;4.97;2.90;;;;;;;;;;5135788;27;20759;-62
2023/07/07 12:24:38;;;;;;;4.20;2.60;;;;;;;;;;5135053;27;20444;-61
2023/07/07 12:27:09;;;;;;;2.70;2.50;;;;;;;;;;5134944;27;20468;-62
2023/07/07 12:29:38;;;;;;;4.87;3.80;;;;;;;;;;5134663;27;20445;-62
2023/07/07 12:32:05;;;;;;;6.37;5.77;;;;;;;;;;5134404;27;20448;-62
2023/07/07 12:34:39;;;;;;;5.60;3.67;;;;;;;;;;5134574;27;20468;-62
2023/07/07 12:37:07;;;;;;;6.20;2.77;;;;;;;;;;5134747;27;20408;-62
2023/07/07 12:39:36;;;;;;;3.10;2.67;;;;;;;;;;5134431;27;20471;-63
2023/07/07 12:42:04;;;;;;;3.70;2.47;;;;;;;;;;5134277;27;20436;-62
2023/07/07 12:44:32;;;;;;;3.00;2.37;;;;;;;;;;5134791;27;20415;-62
2023/07/07 12:46:59;;;;;;;3.60;2.73;;;;;;;;;;5134520;27;20478;-66
2023/07/07 12:49:36;;;;;;;8.63;3.30;;;;;;;;;;5134197;27;20819;-67
2023/07/07 12:52:10;;;;;;;3.00;2.67;;;;;;;;;;5134250;27;20489;-67
2023/07/07 12:54:37;;;;;;;3.40;2.40;;;;;;;;;;5134413;27;20459;-67
2023/07/07 12:57:06;;;;;;;4.60;2.53;;;;;;;;;;5134512;27;20436;-67
2023/07/07 12:59:35;;;;;;;3.20;2.90;;;;;;;;;;5134455;27;20476;-69
2023/07/07 13:02:13;;;;;;;3.33;2.70;;;;;;;;;;5134154;27;20424;-69
2023/07/07 13:04:40;;;;;;;2.73;2.50;;;;;;;;;;5133935;27;20437;-69
2023/07/07 13:07:19;;;;;;;4.63;2.70;;;;;;;;;;5133915;28;20476;-69
2023/07/07 13:09:48;;;;;;;2.90;2.60;;;;;;;;;;5134469;28;20496;-69
2023/07/07 13:12:34;;;;;;;5.00;2.70;;;;;;;;;;5133964;28;20486;-69
2023/07/07 13:15:04;;;;;;;6.37;5.80;;;;;;;;;;5132855;27;20445;-68
2023/07/07 13:17:31;;;;;;;3.00;2.77;;;;;;;;;;5133942;28;20438;-69
2023/07/07 13:20:00;;;;;;;5.23;2.80;;;;;;;;;;5133634;28;20931;-69
2023/07/07 13:22:38;;;;;;;2.97;2.57;;;;;;;;;;5133978;28;20404;-69
2023/07/07 13:25:07;;;;;;;4.60;2.87;;;;;;;;;;5133584;28;20394;-69
2023/07/07 13:27:34;;;;;;;3.17;2.80;;;;;;;;;;5133783;28;20979;-69
2023/07/07 13:30:02;;;;;;;3.00;2.70;;;;;;;;;;5133647;28;20499;-69
2023/07/07 13:32:31;;;;;;;2.80;2.60;;;;;;;;;;5133563;28;20424;-69
2023/07/07 13:34:59;;;;;;;4.13;2.53;;;;;;;;;;5134068;28;20450;-69
2023/07/07 13:37:27;;;;;;;6.33;3.23;;;;;;;;;;5132565;28;20440;-70
2023/07/07 13:39:56;;;;;;;7.90;3.10;;;;;;;;;;5133283;28;20453;-68
2023/07/07 13:42:25;;;;;;;12.20;3.17;;;;;;;;;;5133459;28;20408;-69
2023/07/07 13:44:59;;;;;;;4.60;3.07;;;;;;;;;;5133387;28;20494;-70
2023/07/07 13:47:28;;;;;;;5.43;3.03;;;;;;;;;;5133121;28;20472;-69
2023/07/07 13:49:57;;;;;;;3.33;2.50;;;;;;;;;;5133077;28;20519;-71
2023/07/07 13:52:25;;;;;;;3.07;2.53;;;;;;;;;;5133101;28;20912;-69
2023/07/07 13:54:52;;;;;;;4.97;3.10;;;;;;;;;;5133322;28;20531;-70
2023/07/07 13:57:24;;;;;;;5.17;2.30;;;;;;;;;;5133095;28;20430;-69
2023/07/07 13:59:52;;;;;;;6.50;2.63;;;;;;;;;;5133491;28;20476;-69
2023/07/07 14:02:19;;;;;;;4.40;2.70;;;;;;;;;;5133247;27;20447;-70
2023/07/07 14:04:47;;;;;;;4.67;3.00;;;;;;;;;;5137192;27;20461;-69
2023/07/07 14:07:16;;;;;;;2.97;2.67;;;;;;;;;;5136363;27;20475;-69
2023/07/07 14:09:44;;;;;;;3.37;3.07;;;;;;;;;;5136632;27;20898;-69
2023/07/07 14:12:12;;;;;;;3.53;2.57;;;;;;;;;;5136540;27;20442;-69
2023/07/07 14:14:42;;;;;;;3.13;2.73;;;;;;;;;;5136714;27;20939;-69
2023/07/07 14:17:13;;;;;;;2.73;2.40;;;;;;;;;;5136735;27;20454;-69
2023/07/07 14:19:54;;;;;;;7.27;2.70;;;;;;;;;;5137344;27;20426;-69
2023/07/07 14:22:21;;;;;;;3.67;3.07;;;;;;;;;;5136490;27;20425;-69
2023/07/07 14:24:48;;;;;;;2.90;2.60;;;;;;;;;;5136884;27;20439;-69
2023/07/07 14:27:16;;;;;;;5.97;2.80;;;;;;;;;;5136498;27;20486;-69
2023/07/07 14:29:48;;;;;;;2.67;2.47;;;;;;;;;;5136682;27;20446;-69
2023/07/07 14:32:16;;;;;;;5.20;2.67;;;;;;;;;;5136783;27;20468;-69
2023/07/07 14:34:48;;;;;;;3.97;2.40;;;;;;;;;;5136326;27;20437;-69
2023/07/07 14:37:19;;;;;;;3.03;2.83;;;;;;;;;;5136042;27;20456;-69
2023/07/07 14:39:49;;;;;;;3.73;3.10;;;;;;;;;;5136244;27;20528;-69
2023/07/07 14:42:19;;;;;;;4.73;2.70;;;;;;;;;;5136508;27;20514;-69
2023/07/07 14:44:48;;;;;;;6.20;3.50;;;;;;;;;;5136570;27;20521;-69
2023/07/07 14:47:17;;;;;;;3.17;2.83;;;;;;;;;;5135630;27;20487;-69